Aldrich, Minnesota
Current Conditions -  °F | °C
As of 5:33 PM on Monday 22 Dec 2014 (Local Time) from KSAZ Reporting Station
Drizzle Drizzle  
Wind Chill: 28°   Ceiling: 700
Heat Index: 34°   Visibility: 7mi
Dew Point: 34°   Wind: 7mph
Humidity: 100%   Direction: 90°E
Pressure: 29.6"   Gusts: NA
Location:  46.38°N, 94.94°W
Report Text: KSAZ 222333Z AUTO 09006KT 7SM -DZ OVC007 01/01 A2960 RMK AO2
Loading
Personal Weather Stations






























Interactive Weather Map New forecast layout! Learn more

10-Day Weather Forecast

Advertisements
Track Severe Weather on mobile